sensor_id;sensor_type;location;lat;lon;timestamp;pressure;altitude;pressure_sealevel;temperature;humidity
76853;BME280;65825;52.232;10.566;2023-03-01T00:01:10;102224.66;;;-3.58;77.38
76853;BME280;65825;52.232;10.566;2023-03-01T00:03:36;102231.25;;;-3.64;77.31
76853;BME280;65825;52.232;10.566;2023-03-01T00:06:02;102230.91;;;-3.70;77.14
76853;BME280;65825;52.232;10.566;2023-03-01T00:08:28;102228.84;;;-3.77;77.96
76853;BME280;65825;52.232;10.566;2023-03-01T00:11:26;102222.56;;;-3.82;78.37
76853;BME280;65825;52.232;10.566;2023-03-01T00:13:54;102224.34;;;-3.81;78.69
76853;BME280;65825;52.232;10.566;2023-03-01T00:16:32;102230.31;;;-3.82;78.74
76853;BME280;65825;52.232;10.566;2023-03-01T00:18:58;102233.63;;;-3.85;78.62
76853;BME280;65825;52.232;10.566;2023-03-01T00:21:24;102234.44;;;-3.86;78.10
76853;BME280;65825;52.232;10.566;2023-03-01T00:23:50;102228.69;;;-3.80;77.93
76853;BME280;65825;52.232;10.566;2023-03-01T00:26:16;102223.22;;;-3.86;78.00
76853;BME280;65825;52.232;10.566;2023-03-01T00:28:42;102223.13;;;-3.88;77.68
76853;BME280;65825;52.232;10.566;2023-03-01T00:31:11;102215.09;;;-3.94;78.47
76853;BME280;65825;52.232;10.566;2023-03-01T00:33:36;102218.34;;;-3.98;78.90
76853;BME280;65825;52.232;10.566;2023-03-01T00:36:02;102210.16;;;-4.07;79.38
76853;BME280;65825;52.232;10.566;2023-03-01T00:38:28;102221.28;;;-4.08;79.51
76853;BME280;65825;52.232;10.566;2023-03-01T00:40:53;102225.53;;;-4.08;78.99
76853;BME280;65825;52.232;10.566;2023-03-01T00:43:18;102218.03;;;-4.04;78.45
76853;BME280;65825;52.232;10.566;2023-03-01T00:45:44;102216.25;;;-4.05;78.41
76853;BME280;65825;52.232;10.566;2023-03-01T00:48:10;102225.44;;;-4.10;78.70
76853;BME280;65825;52.232;10.566;2023-03-01T00:50:35;102217.63;;;-4.11;79.44
76853;BME280;65825;52.232;10.566;2023-03-01T00:53:00;102222.88;;;-4.10;79.42
76853;BME280;65825;52.232;10.566;2023-03-01T00:55:26;102212.97;;;-4.18;80.11
76853;BME280;65825;52.232;10.566;2023-03-01T00:57:51;102217.22;;;-4.19;80.98
76853;BME280;65825;52.232;10.566;2023-03-01T01:00:17;102216.38;;;-4.19;80.46
76853;BME280;65825;52.232;10.566;2023-03-01T01:02:43;102221.53;;;-4.19;80.46
76853;BME280;65825;52.232;10.566;2023-03-01T01:05:09;102219.50;;;-4.25;80.62
76853;BME280;65825;52.232;10.566;2023-03-01T01:07:34;102222.75;;;-4.29;80.53
76853;BME280;65825;52.232;10.566;2023-03-01T01:10:00;102215.97;;;-4.27;80.09
76853;BME280;65825;52.232;10.566;2023-03-01T01:12:25;102208.25;;;-4.27;79.83
76853;BME280;65825;52.232;10.566;2023-03-01T01:14:50;102201.88;;;-4.33;80.00
76853;BME280;65825;52.232;10.566;2023-03-01T01:17:15;102209.59;;;-4.33;79.84
76853;BME280;65825;52.232;10.566;2023-03-01T01:19:41;102205.81;;;-4.40;80.00
76853;BME280;65825;52.232;10.566;2023-03-01T01:22:06;102207.53;;;-4.40;79.69
76853;BME280;65825;52.232;10.566;2023-03-01T01:24:31;102199.88;;;-4.39;80.14
76853;BME280;65825;52.232;10.566;2023-03-01T01:26:57;102198.75;;;-4.44;80.67
76853;BME280;65825;52.232;10.566;2023-03-01T01:29:22;102185.69;;;-4.47;81.04
76853;BME280;65825;52.232;10.566;2023-03-01T01:31:47;102189.00;;;-4.49;80.91
76853;BME280;65825;52.232;10.566;2023-03-01T01:34:16;102192.94;;;-4.56;81.80
76853;BME280;65825;52.232;10.566;2023-03-01T01:36:42;102196.41;;;-4.55;80.70
76853;BME280;65825;52.232;10.566;2023-03-01T01:39:07;102196.34;;;-4.57;80.40
76853;BME280;65825;52.232;10.566;2023-03-01T01:41:33;102198.09;;;-4.56;80.19
76853;BME280;65825;52.232;10.566;2023-03-01T01:46:37;102191.03;;;-4.60;79.81
76853;BME280;65825;52.232;10.566;2023-03-01T01:49:07;102185.00;;;-4.60;79.36
76853;BME280;65825;52.232;10.566;2023-03-01T01:51:38;102181.47;;;-4.62;79.69
76853;BME280;65825;52.232;10.566;2023-03-01T01:54:16;102172.66;;;-4.66;79.98
76853;BME280;65825;52.232;10.566;2023-03-01T01:56:48;102177.41;;;-4.73;79.85
76853;BME280;65825;52.232;10.566;2023-03-01T01:59:16;102176.78;;;-4.69;79.74
76853;BME280;65825;52.232;10.566;2023-03-01T02:01:43;102175.63;;;-4.74;80.67
76853;BME280;65825;52.232;10.566;2023-03-01T02:04:08;102171.94;;;-4.79;80.74
76853;BME280;65825;52.232;10.566;2023-03-01T02:06:38;102170.25;;;-4.79;79.99
76853;BME280;65825;52.232;10.566;2023-03-01T02:09:08;102173.56;;;-4.81;80.34
76853;BME280;65825;52.232;10.566;2023-03-01T02:11:36;102163.81;;;-4.87;80.36
76853;BME280;65825;52.232;10.566;2023-03-01T02:14:02;102173.97;;;-4.90;81.15
76853;BME280;65825;52.232;10.566;2023-03-01T02:16:29;102162.84;;;-4.89;81.35
76853;BME280;65825;52.232;10.566;2023-03-01T02:18:54;102165.50;;;-4.87;81.02
76853;BME280;65825;52.232;10.566;2023-03-01T02:24:25;102153.09;;;-4.94;82.01
76853;BME280;65825;52.232;10.566;2023-03-01T02:26:55;102153.03;;;-4.96;82.29
76853;BME280;65825;52.232;10.566;2023-03-01T02:29:22;102149.47;;;-4.98;83.48
76853;BME280;65825;52.232;10.566;2023-03-01T02:31:49;102146.19;;;-4.95;83.32
76853;BME280;65825;52.232;10.566;2023-03-01T02:34:18;102141.28;;;-4.91;82.67
76853;BME280;65825;52.232;10.566;2023-03-01T02:36:50;102136.16;;;-4.91;82.18
76853;BME280;65825;52.232;10.566;2023-03-01T02:39:22;102139.19;;;-4.98;82.50
76853;BME280;65825;52.232;10.566;2023-03-01T02:41:53;102142.47;;;-5.00;83.39
76853;BME280;65825;52.232;10.566;2023-03-01T02:44:19;102139.81;;;-5.02;82.72
76853;BME280;65825;52.232;10.566;2023-03-01T02:46:51;102137.91;;;-5.06;83.62
76853;BME280;65825;52.232;10.566;2023-03-01T02:49:28;102138.69;;;-5.07;83.20
76853;BME280;65825;52.232;10.566;2023-03-01T02:52:16;102132.09;;;-5.02;83.02
76853;BME280;65825;52.232;10.566;2023-03-01T02:55:12;102119.06;;;-5.05;83.64
76853;BME280;65825;52.232;10.566;2023-03-01T02:57:41;102120.75;;;-5.05;84.51
76853;BME280;65825;52.232;10.566;2023-03-01T03:00:10;102120.19;;;-5.00;84.10
76853;BME280;65825;52.232;10.566;2023-03-01T03:02:36;102117.44;;;-5.03;83.91
76853;BME280;65825;52.232;10.566;2023-03-01T03:05:16;102116.59;;;-5.03;83.33
76853;BME280;65825;52.232;10.566;2023-03-01T03:07:44;102121.78;;;-5.02;82.99
76853;BME280;65825;52.232;10.566;2023-03-01T03:10:14;102120.75;;;-5.05;83.07
76853;BME280;65825;52.232;10.566;2023-03-01T03:12:40;102124.22;;;-5.05;82.71
76853;BME280;65825;52.232;10.566;2023-03-01T03:15:07;102129.09;;;-5.09;82.70
76853;BME280;65825;52.232;10.566;2023-03-01T03:17:37;102127.59;;;-5.06;82.73
76853;BME280;65825;52.232;10.566;2023-03-01T03:20:05;102122.91;;;-5.13;82.19
76853;BME280;65825;52.232;10.566;2023-03-01T03:22:32;102123.72;;;-5.14;82.07
76853;BME280;65825;52.232;10.566;2023-03-01T03:24:59;102119.38;;;-5.15;82.60
76853;BME280;65825;52.232;10.566;2023-03-01T03:27:24;102128.56;;;-5.20;83.70
76853;BME280;65825;52.232;10.566;2023-03-01T03:29:50;102122.44;;;-5.22;85.13
76853;BME280;65825;52.232;10.566;2023-03-01T03:32:15;102127.84;;;-5.17;84.65
76853;BME280;65825;52.232;10.566;2023-03-01T03:34:40;102131.63;;;-5.11;83.13
76853;BME280;65825;52.232;10.566;2023-03-01T03:37:05;102123.91;;;-5.11;83.43
76853;BME280;65825;52.232;10.566;2023-03-01T03:39:51;102131.31;;;-5.17;83.01
76853;BME280;65825;52.232;10.566;2023-03-01T03:42:20;102121.78;;;-5.18;82.95
76853;BME280;65825;52.232;10.566;2023-03-01T03:44:45;102122.44;;;-5.22;82.95
76853;BME280;65825;52.232;10.566;2023-03-01T03:47:11;102123.31;;;-5.21;82.93
76853;BME280;65825;52.232;10.566;2023-03-01T03:49:36;102120.50;;;-5.26;82.59
76853;BME280;65825;52.232;10.566;2023-03-01T03:52:01;102121.13;;;-5.30;83.45
76853;BME280;65825;52.232;10.566;2023-03-01T03:54:26;102124.50;;;-5.31;82.83
76853;BME280;65825;52.232;10.566;2023-03-01T03:56:51;102120.22;;;-5.30;83.10
76853;BME280;65825;52.232;10.566;2023-03-01T03:59:17;102126.50;;;-5.25;83.31
76853;BME280;65825;52.232;10.566;2023-03-01T04:01:42;102122.28;;;-5.25;82.08
76853;BME280;65825;52.232;10.566;2023-03-01T04:04:09;102125.22;;;-5.33;83.23
76853;BME280;65825;52.232;10.566;2023-03-01T04:06:34;102124.97;;;-5.38;83.13
76853;BME280;65825;52.232;10.566;2023-03-01T04:09:00;102119.59;;;-5.42;83.69
76853;BME280;65825;52.232;10.566;2023-03-01T04:11:27;102122.16;;;-5.42;82.89
76853;BME280;65825;52.232;10.566;2023-03-01T04:13:57;102127.16;;;-5.45;83.42
76853;BME280;65825;52.232;10.566;2023-03-01T04:16:23;102129.53;;;-5.48;83.75
76853;BME280;65825;52.232;10.566;2023-03-01T04:18:51;102129.44;;;-5.50;83.62
76853;BME280;65825;52.232;10.566;2023-03-01T04:21:18;102127.50;;;-5.54;83.54
76853;BME280;65825;52.232;10.566;2023-03-01T04:23:45;102128.16;;;-5.58;82.36
76853;BME280;65825;52.232;10.566;2023-03-01T04:26:10;102123.63;;;-5.62;82.76
76853;BME280;65825;52.232;10.566;2023-03-01T04:28:38;102134.03;;;-5.60;83.95
76853;BME280;65825;52.232;10.566;2023-03-01T04:31:16;102130.38;;;-5.64;84.09
76853;BME280;65825;52.232;10.566;2023-03-01T04:33:46;102131.09;;;-5.66;83.62
76853;BME280;65825;52.232;10.566;2023-03-01T04:36:13;102128.50;;;-5.66;83.50
76853;BME280;65825;52.232;10.566;2023-03-01T04:38:41;102132.88;;;-5.65;82.06
76853;BME280;65825;52.232;10.566;2023-03-01T04:41:09;102128.25;;;-5.71;83.41
76853;BME280;65825;52.232;10.566;2023-03-01T04:43:35;102125.53;;;-5.74;83.50
76853;BME280;65825;52.232;10.566;2023-03-01T04:46:06;102122.78;;;-5.77;84.77
76853;BME280;65825;52.232;10.566;2023-03-01T04:48:34;102121.03;;;-5.78;86.13
76853;BME280;65825;52.232;10.566;2023-03-01T04:50:59;102125.53;;;-5.74;84.81
76853;BME280;65825;52.232;10.566;2023-03-01T04:53:26;102114.78;;;-5.67;83.29
76853;BME280;65825;52.232;10.566;2023-03-01T04:55:53;102113.16;;;-5.65;83.13
76853;BME280;65825;52.232;10.566;2023-03-01T04:58:18;102124.03;;;-5.70;82.98
76853;BME280;65825;52.232;10.566;2023-03-01T05:00:44;102119.50;;;-5.74;82.89
76853;BME280;65825;52.232;10.566;2023-03-01T05:03:09;102114.97;;;-5.78;83.25
76853;BME280;65825;52.232;10.566;2023-03-01T05:05:36;102105.28;;;-5.84;84.26
76853;BME280;65825;52.232;10.566;2023-03-01T05:08:04;102112.28;;;-5.81;83.05
76853;BME280;65825;52.232;10.566;2023-03-01T05:10:31;102120.53;;;-5.87;83.56
76853;BME280;65825;52.232;10.566;2023-03-01T05:12:58;102110.06;;;-5.90;84.74
76853;BME280;65825;52.232;10.566;2023-03-01T05:15:28;102117.88;;;-5.88;83.50
76853;BME280;65825;52.232;10.566;2023-03-01T05:17:55;102109.00;;;-5.93;84.36
76853;BME280;65825;52.232;10.566;2023-03-01T05:20:23;102116.81;;;-5.92;86.05
76853;BME280;65825;52.232;10.566;2023-03-01T05:22:49;102111.91;;;-5.87;84.41
76853;BME280;65825;52.232;10.566;2023-03-01T05:25:15;102108.81;;;-5.82;83.47
76853;BME280;65825;52.232;10.566;2023-03-01T05:27:40;102113.63;;;-5.88;83.81
76853;BME280;65825;52.232;10.566;2023-03-01T05:30:06;102119.00;;;-5.83;82.63
76853;BME280;65825;52.232;10.566;2023-03-01T05:32:50;102110.06;;;-5.90;83.66
76853;BME280;65825;52.232;10.566;2023-03-01T05:35:21;102115.06;;;-5.93;83.00
76853;BME280;65825;52.232;10.566;2023-03-01T05:37:48;102117.34;;;-5.97;82.41
76853;BME280;65825;52.232;10.566;2023-03-01T05:40:16;102118.16;;;-5.98;82.66
76853;BME280;65825;52.232;10.566;2023-03-01T05:42:49;102110.19;;;-6.03;83.38
76853;BME280;65825;52.232;10.566;2023-03-01T05:45:17;102110.72;;;-6.08;82.53
76853;BME280;65825;52.232;10.566;2023-03-01T05:47:44;102106.38;;;-6.09;83.51
76853;BME280;65825;52.232;10.566;2023-03-01T05:50:19;102112.75;;;-6.03;81.78
76853;BME280;65825;52.232;10.566;2023-03-01T05:52:50;102103.28;;;-6.04;82.80
76853;BME280;65825;52.232;10.566;2023-03-01T05:55:20;102103.72;;;-6.11;82.84
76853;BME280;65825;52.232;10.566;2023-03-01T05:57:46;102108.25;;;-6.07;82.46
76853;BME280;65825;52.232;10.566;2023-03-01T06:00:18;102100.19;;;-6.13;83.72
76853;BME280;65825;52.232;10.566;2023-03-01T06:02:44;102099.66;;;-6.07;85.28
76853;BME280;65825;52.232;10.566;2023-03-01T06:05:11;102091.94;;;-6.07;84.02
76853;BME280;65825;52.232;10.566;2023-03-01T06:07:38;102091.50;;;-6.00;83.71
76853;BME280;65825;52.232;10.566;2023-03-01T06:10:05;102105.94;;;-6.02;83.83
76853;BME280;65825;52.232;10.566;2023-03-01T06:12:32;102106.09;;;-5.99;84.18
76853;BME280;65825;52.232;10.566;2023-03-01T06:14:57;102099.00;;;-5.89;82.56
76853;BME280;65825;52.232;10.566;2023-03-01T06:17:23;102094.91;;;-5.85;82.07
76853;BME280;65825;52.232;10.566;2023-03-01T06:19:48;102097.63;;;-5.82;81.75
76853;BME280;65825;52.232;10.566;2023-03-01T06:22:13;102099.06;;;-5.87;83.63
76853;BME280;65825;52.232;10.566;2023-03-01T06:24:38;102099.66;;;-5.77;81.83
76853;BME280;65825;52.232;10.566;2023-03-01T06:27:04;102100.44;;;-5.78;81.76
76853;BME280;65825;52.232;10.566;2023-03-01T06:29:29;102100.53;;;-5.76;82.90
76853;BME280;65825;52.232;10.566;2023-03-01T06:31:54;102102.47;;;-5.72;81.85
76853;BME280;65825;52.232;10.566;2023-03-01T06:34:20;102104.50;;;-5.67;81.59
76853;BME280;65825;52.232;10.566;2023-03-01T06:36:46;102105.38;;;-5.66;81.76
76853;BME280;65825;52.232;10.566;2023-03-01T06:39:13;102101.31;;;-5.63;82.23
76853;BME280;65825;52.232;10.566;2023-03-01T06:41:39;102111.22;;;-5.69;82.91
76853;BME280;65825;52.232;10.566;2023-03-01T06:44:04;102108.22;;;-5.62;81.56
76853;BME280;65825;52.232;10.566;2023-03-01T06:46:30;102105.97;;;-5.56;82.03
76853;BME280;65825;52.232;10.566;2023-03-01T06:48:55;102104.53;;;-5.51;82.47
76853;BME280;65825;52.232;10.566;2023-03-01T06:51:21;102098.28;;;-5.40;82.47
76853;BME280;65825;52.232;10.566;2023-03-01T06:53:46;102109.78;;;-5.33;82.98
76853;BME280;65825;52.232;10.566;2023-03-01T06:56:11;102117.13;;;-5.25;81.88
76853;BME280;65825;52.232;10.566;2023-03-01T06:58:36;102115.28;;;-5.27;82.29
76853;BME280;65825;52.232;10.566;2023-03-01T07:01:06;102113.91;;;-5.21;82.08
76853;BME280;65825;52.232;10.566;2023-03-01T07:03:31;102107.75;;;-5.08;83.26
76853;BME280;65825;52.232;10.566;2023-03-01T07:05:56;102115.19;;;-4.97;82.93
76853;BME280;65825;52.232;10.566;2023-03-01T07:08:22;102115.06;;;-4.84;81.41
76853;BME280;65825;52.232;10.566;2023-03-01T07:10:47;102108.13;;;-4.69;80.82
76853;BME280;65825;52.232;10.566;2023-03-01T07:13:12;102101.44;;;-4.65;81.13
76853;BME280;65825;52.232;10.566;2023-03-01T07:15:40;102100.78;;;-4.61;81.55
76853;BME280;65825;52.232;10.566;2023-03-01T07:18:05;102101.41;;;-4.49;81.01
76853;BME280;65825;52.232;10.566;2023-03-01T07:20:30;102089.00;;;-4.40;82.25
76853;BME280;65825;52.232;10.566;2023-03-01T07:22:55;102099.34;;;-4.23;82.98
76853;BME280;65825;52.232;10.566;2023-03-01T07:25:23;102088.97;;;-4.07;81.85
76853;BME280;65825;52.232;10.566;2023-03-01T07:27:52;102083.19;;;-3.84;81.45
76853;BME280;65825;52.232;10.566;2023-03-01T07:30:19;102079.56;;;-3.52;81.41
76853;BME280;65825;52.232;10.566;2023-03-01T07:32:45;102086.41;;;-3.16;81.52
76853;BME280;65825;52.232;10.566;2023-03-01T07:35:11;102081.81;;;-2.85;79.86
76853;BME280;65825;52.232;10.566;2023-03-01T07:37:36;102078.97;;;-2.52;79.20
76853;BME280;65825;52.232;10.566;2023-03-01T07:40:01;102070.53;;;-2.27;79.54
76853;BME280;65825;52.232;10.566;2023-03-01T07:42:27;102072.94;;;-1.91;77.69
76853;BME280;65825;52.232;10.566;2023-03-01T07:44:52;102071.38;;;-1.43;76.23
76853;BME280;65825;52.232;10.566;2023-03-01T07:47:17;102077.09;;;-0.83;74.21
76853;BME280;65825;52.232;10.566;2023-03-01T07:49:42;102076.97;;;-0.14;72.29
76853;BME280;65825;52.232;10.566;2023-03-01T07:52:10;102072.56;;;0.92;68.16
76853;BME280;65825;52.232;10.566;2023-03-01T07:54:36;102081.31;;;2.24;63.98
76853;BME280;65825;52.232;10.566;2023-03-01T07:57:01;102079.72;;;3.49;59.10
76853;BME280;65825;52.232;10.566;2023-03-01T07:59:26;102072.19;;;4.73;54.22
76853;BME280;65825;52.232;10.566;2023-03-01T08:01:54;102077.44;;;5.41;51.44
76853;BME280;65825;52.232;10.566;2023-03-01T08:04:20;102077.19;;;5.95;50.96
76853;BME280;65825;52.232;10.566;2023-03-01T08:06:45;102070.09;;;7.09;48.52
76853;BME280;65825;52.232;10.566;2023-03-01T08:09:11;102072.06;;;8.15;45.93
76853;BME280;65825;52.232;10.566;2023-03-01T08:11:36;102071.16;;;8.80;43.60
76853;BME280;65825;52.232;10.566;2023-03-01T08:14:01;102062.13;;;9.43;42.04
76853;BME280;65825;52.232;10.566;2023-03-01T08:16:26;102062.53;;;10.15;40.01
76853;BME280;65825;52.232;10.566;2023-03-01T08:18:52;102058.59;;;10.61;38.59
76853;BME280;65825;52.232;10.566;2023-03-01T08:21:17;102058.16;;;11.02;38.00
76853;BME280;65825;52.232;10.566;2023-03-01T08:23:43;102047.06;;;11.44;37.01
76853;BME280;65825;52.232;10.566;2023-03-01T08:26:11;102057.78;;;11.95;35.25
76853;BME280;65825;52.232;10.566;2023-03-01T08:28:38;102056.06;;;12.44;33.92
76853;BME280;65825;52.232;10.566;2023-03-01T08:31:32;102054.50;;;12.81;33.26
76853;BME280;65825;52.232;10.566;2023-03-01T08:34:01;102051.69;;;12.90;32.02
76853;BME280;65825;52.232;10.566;2023-03-01T08:36:31;102046.06;;;13.07;31.91
76853;BME280;65825;52.232;10.566;2023-03-01T08:38:56;102043.38;;;13.49;30.55
76853;BME280;65825;52.232;10.566;2023-03-01T08:41:22;102048.69;;;14.25;28.46
76853;BME280;65825;52.232;10.566;2023-03-01T08:43:50;102046.03;;;15.20;26.86
76853;BME280;65825;52.232;10.566;2023-03-01T08:46:15;102043.00;;;15.62;26.39
76853;BME280;65825;52.232;10.566;2023-03-01T08:48:40;102042.25;;;15.86;26.65
76853;BME280;65825;52.232;10.566;2023-03-01T08:51:13;102044.81;;;16.43;24.70
76853;BME280;65825;52.232;10.566;2023-03-01T08:53:39;102035.88;;;17.17;24.99
76853;BME280;65825;52.232;10.566;2023-03-01T08:56:05;102049.66;;;17.53;23.92
76853;BME280;65825;52.232;10.566;2023-03-01T08:58:31;102043.69;;;17.46;23.85
76853;BME280;65825;52.232;10.566;2023-03-01T09:00:56;102044.31;;;18.40;23.11
76853;BME280;65825;52.232;10.566;2023-03-01T09:03:22;102045.50;;;18.93;22.61
76853;BME280;65825;52.232;10.566;2023-03-01T09:05:47;102043.03;;;19.09;20.99
76853;BME280;65825;52.232;10.566;2023-03-01T09:08:15;102028.19;;;19.20;21.15
76853;BME280;65825;52.232;10.566;2023-03-01T09:10:40;102029.56;;;19.49;20.31
76853;BME280;65825;52.232;10.566;2023-03-01T09:13:05;102028.38;;;20.10;20.19
76853;BME280;65825;52.232;10.566;2023-03-01T09:15:30;102025.88;;;20.41;20.15
76853;BME280;65825;52.232;10.566;2023-03-01T09:17:56;102028.66;;;21.23;19.10
76853;BME280;65825;52.232;10.566;2023-03-01T09:20:21;102025.34;;;21.66;18.28
76853;BME280;65825;52.232;10.566;2023-03-01T09:22:46;102024.84;;;22.21;18.14
76853;BME280;65825;52.232;10.566;2023-03-01T09:25:12;102021.50;;;23.05;17.66
76853;BME280;65825;52.232;10.566;2023-03-01T09:27:37;102027.13;;;23.30;15.89
76853;BME280;65825;52.232;10.566;2023-03-01T09:30:03;102023.00;;;23.93;16.41
76853;BME280;65825;52.232;10.566;2023-03-01T09:32:30;102030.81;;;24.63;14.41
76853;BME280;65825;52.232;10.566;2023-03-01T09:34:56;102041.13;;;24.96;15.04
76853;BME280;65825;52.232;10.566;2023-03-01T09:37:30;102034.53;;;25.98;14.34
76853;BME280;65825;52.232;10.566;2023-03-01T09:39:56;102033.94;;;26.53;13.33
76853;BME280;65825;52.232;10.566;2023-03-01T09:42:23;102029.00;;;26.81;12.96
76853;BME280;65825;52.232;10.566;2023-03-01T09:44:58;102018.47;;;27.99;12.26
76853;BME280;65825;52.232;10.566;2023-03-01T09:47:28;102017.84;;;28.38;11.44
76853;BME280;65825;52.232;10.566;2023-03-01T09:50:02;102013.69;;;29.16;11.17
76853;BME280;65825;52.232;10.566;2023-03-01T09:52:36;102008.78;;;29.70;10.80
76853;BME280;65825;52.232;10.566;2023-03-01T09:55:10;102004.34;;;29.69;10.24
76853;BME280;65825;52.232;10.566;2023-03-01T09:57:47;102009.00;;;30.92;9.70
76853;BME280;65825;52.232;10.566;2023-03-01T10:00:25;102006.22;;;31.30;9.13
76853;BME280;65825;52.232;10.566;2023-03-01T10:03:13;102005.59;;;32.52;8.67
76853;BME280;65825;52.232;10.566;2023-03-01T10:06:04;102009.25;;;32.78;8.47
76853;BME280;65825;52.232;10.566;2023-03-01T10:08:46;102009.91;;;33.90;7.47
76853;BME280;65825;52.232;10.566;2023-03-01T10:11:23;102002.84;;;34.45;6.83
76853;BME280;65825;52.232;10.566;2023-03-01T10:13:58;101995.91;;;35.21;6.01
76853;BME280;65825;52.232;10.566;2023-03-01T10:16:59;101998.78;;;35.44;6.08
76853;BME280;65825;52.232;10.566;2023-03-01T10:19:33;101996.13;;;35.74;6.16
76853;BME280;65825;52.232;10.566;2023-03-01T10:22:26;101995.97;;;36.29;5.60
76853;BME280;65825;52.232;10.566;2023-03-01T10:24:54;101990.88;;;37.00;5.78
76853;BME280;65825;52.232;10.566;2023-03-01T10:27:25;101989.81;;;37.88;5.06
76853;BME280;65825;52.232;10.566;2023-03-01T10:32:37;101985.41;;;38.08;4.99
76853;BME280;65825;52.232;10.566;2023-03-01T10:35:24;101990.47;;;38.04;4.38
76853;BME280;65825;52.232;10.566;2023-03-01T10:38:11;101984.13;;;38.67;4.39
76853;BME280;65825;52.232;10.566;2023-03-01T10:40:51;101976.34;;;38.77;4.18
76853;BME280;65825;52.232;10.566;2023-03-01T10:43:16;101981.53;;;38.86;4.73
76853;BME280;65825;52.232;10.566;2023-03-01T10:45:42;101980.22;;;39.10;4.08
76853;BME280;65825;52.232;10.566;2023-03-01T10:48:24;101974.94;;;39.49;4.07
76853;BME280;65825;52.232;10.566;2023-03-01T10:51:05;101970.88;;;39.11;3.98
76853;BME280;65825;52.232;10.566;2023-03-01T10:53:40;101971.19;;;39.29;3.94
76853;BME280;65825;52.232;10.566;2023-03-01T10:56:14;101965.13;;;39.40;3.83
76853;BME280;65825;52.232;10.566;2023-03-01T10:58:57;101970.16;;;38.75;3.96
76853;BME280;65825;52.232;10.566;2023-03-01T11:06:35;101959.47;;;39.27;3.94
76853;BME280;65825;52.232;10.566;2023-03-01T11:09:21;101963.03;;;38.59;3.92
76853;BME280;65825;52.232;10.566;2023-03-01T11:12:00;101949.53;;;38.98;3.49
76853;BME280;65825;52.232;10.566;2023-03-01T11:14:35;101951.38;;;39.25;3.69
76853;BME280;65825;52.232;10.566;2023-03-01T11:17:23;101955.84;;;39.60;3.76
76853;BME280;65825;52.232;10.566;2023-03-01T11:20:20;101952.63;;;40.10;3.57
76853;BME280;65825;52.232;10.566;2023-03-01T11:22:53;101946.06;;;40.18;3.42
76853;BME280;65825;52.232;10.566;2023-03-01T11:25:26;101946.31;;;40.29;3.55
76853;BME280;65825;52.232;10.566;2023-03-01T11:27:53;101938.72;;;39.78;4.13
76853;BME280;65825;52.232;10.566;2023-03-01T11:30:34;101930.66;;;39.36;4.68
76853;BME280;65825;52.232;10.566;2023-03-01T11:35:37;101942.25;;;37.50;3.90
76853;BME280;65825;52.232;10.566;2023-03-01T11:38:18;101938.44;;;36.19;5.00
76853;BME280;65825;52.232;10.566;2023-03-01T11:40:50;101939.94;;;36.44;5.22
76853;BME280;65825;52.232;10.566;2023-03-01T11:43:38;101940.84;;;37.40;4.76
76853;BME280;65825;52.232;10.566;2023-03-01T11:58:52;101932.44;;;39.16;3.37
76853;BME280;65825;52.232;10.566;2023-03-01T12:03:59;101916.91;;;40.15;3.84
76853;BME280;65825;52.232;10.566;2023-03-01T12:12:23;101906.13;;;38.65;3.51
76853;BME280;65825;52.232;10.566;2023-03-01T12:14:55;101912.16;;;39.36;3.79
76853;BME280;65825;52.232;10.566;2023-03-01T12:26:08;101889.22;;;40.28;3.26
76853;BME280;65825;52.232;10.566;2023-03-01T12:29:09;101896.81;;;39.94;3.43
76853;BME280;65825;52.232;10.566;2023-03-01T12:37:21;101866.88;;;40.17;3.19
76853;BME280;65825;52.232;10.566;2023-03-01T12:40:10;101863.69;;;40.59;3.11
76853;BME280;65825;52.232;10.566;2023-03-01T12:43:10;101860.91;;;40.26;3.08
76853;BME280;65825;52.232;10.566;2023-03-01T12:51:30;101851.25;;;40.87;3.27
76853;BME280;65825;52.232;10.566;2023-03-01T12:53:58;101846.13;;;40.84;2.53
76853;BME280;65825;52.232;10.566;2023-03-01T12:56:30;101844.47;;;40.70;3.28
76853;BME280;65825;52.232;10.566;2023-03-01T12:59:23;101841.63;;;41.03;2.91
76853;BME280;65825;52.232;10.566;2023-03-01T13:04:47;101834.25;;;40.51;3.11
76853;BME280;65825;52.232;10.566;2023-03-01T13:07:40;101831.50;;;40.45;3.03
76853;BME280;65825;52.232;10.566;2023-03-01T13:15:34;101821.59;;;41.07;3.20
76853;BME280;65825;52.232;10.566;2023-03-01T13:26:08;101816.84;;;41.14;3.01
76853;BME280;65825;52.232;10.566;2023-03-01T13:30:58;101819.28;;;41.35;2.71
76853;BME280;65825;52.232;10.566;2023-03-01T13:35:57;101815.03;;;40.89;3.38
76853;BME280;65825;52.232;10.566;2023-03-01T13:38:54;101797.25;;;40.00;3.63
76853;BME280;65825;52.232;10.566;2023-03-01T13:46:57;101801.81;;;38.94;3.99
76853;BME280;65825;52.232;10.566;2023-03-01T13:49:27;101793.94;;;38.51;4.19
76853;BME280;65825;52.232;10.566;2023-03-01T13:51:53;101793.09;;;38.50;4.00
76853;BME280;65825;52.232;10.566;2023-03-01T13:54:26;101786.75;;;38.01;4.24
76853;BME280;65825;52.232;10.566;2023-03-01T13:56:54;101776.44;;;37.89;4.59
76853;BME280;65825;52.232;10.566;2023-03-01T13:59:21;101777.00;;;37.42;4.57
76853;BME280;65825;52.232;10.566;2023-03-01T14:01:55;101772.81;;;37.25;5.23
76853;BME280;65825;52.232;10.566;2023-03-01T14:04:29;101765.13;;;37.42;4.62
76853;BME280;65825;52.232;10.566;2023-03-01T14:07:31;101764.81;;;36.80;4.82
76853;BME280;65825;52.232;10.566;2023-03-01T14:10:00;101776.31;;;36.69;4.93
76853;BME280;65825;52.232;10.566;2023-03-01T14:15:27;101752.59;;;37.04;4.96
76853;BME280;65825;52.232;10.566;2023-03-01T14:18:01;101751.63;;;36.47;5.08
76853;BME280;65825;52.232;10.566;2023-03-01T14:20:38;101754.84;;;36.36;5.51
76853;BME280;65825;52.232;10.566;2023-03-01T14:23:14;101758.97;;;36.17;5.47